createdAt,value
2022-09-13T00:00:14.193Z,78.27
2022-09-13T00:05:18.729Z,77.68
2022-09-13T00:10:21.843Z,78.71
2022-09-13T00:15:24.986Z,78.47
2022-09-13T00:20:30.284Z,77.68
2022-09-13T00:25:33.229Z,78.36
2022-09-13T00:30:36.184Z,77.72
2022-09-13T00:35:40.474Z,77.64
2022-09-13T00:40:43.366Z,77.57
2022-09-13T00:45:47.635Z,78.34
2022-09-13T00:50:56.359Z,78.37
2022-09-13T00:56:01.987Z,78.97
2022-09-13T01:01:07.906Z,78.59
2022-09-13T01:06:15.586Z,78.47
2022-09-13T01:11:25.593Z,78.79
2022-09-13T01:16:28.658Z,78.36
2022-09-13T01:22:26.782Z,78.98
2022-09-13T01:27:55.085Z,79.29
2022-09-13T01:33:33.504Z,78.82
2022-09-13T01:38:57.502Z,79.06
2022-09-13T01:44:08.660Z,79.34
2022-09-13T01:49:19.451Z,79.61
2022-09-13T01:54:33.637Z,79.78
2022-09-13T01:59:43.880Z,79.79
2022-09-13T02:04:54.370Z,78.93
2022-09-13T02:10:02.060Z,79.54
2022-09-13T02:15:11.751Z,80.84
2022-09-13T02:20:21.181Z,81.02
2022-09-13T02:25:27.686Z,81.21
2022-09-13T02:30:34.321Z,81.20
2022-09-13T02:35:44.743Z,81.57
2022-09-13T02:40:54.638Z,81.01
2022-09-13T02:46:11.779Z,81.34
2022-09-13T02:51:22.114Z,81.75
2022-09-13T02:56:35.517Z,81.41
2022-09-13T03:01:40.269Z,81.36
2022-09-13T03:06:44.529Z,80.26
2022-09-13T03:12:17.240Z,79.95
2022-09-13T03:17:34.607Z,79.52
2022-09-13T03:22:58.197Z,77.87
2022-09-13T03:28:09.807Z,78.23
2022-09-13T03:33:21.710Z,77.60
2022-09-13T03:38:31.932Z,77.67
2022-09-13T03:43:40.115Z,74.98
2022-09-13T03:48:45.042Z,75.94
2022-09-13T03:53:56.342Z,78.65
2022-09-13T03:58:59.338Z,78.75
2022-09-13T04:04:02.321Z,78.09
2022-09-13T04:09:06.674Z,78.28
2022-09-13T04:14:10.696Z,80.11
2022-09-13T04:19:14.116Z,80.14
2022-09-13T04:24:19.258Z,79.41
2022-09-13T04:29:24.062Z,80.15
2022-09-13T04:34:27.047Z,79.84
2022-09-13T04:39:31.408Z,80.12
2022-09-13T04:44:34.504Z,80.11
2022-09-13T04:49:37.798Z,80.65
2022-09-13T04:54:42.078Z,79.72
2022-09-13T04:59:45.143Z,79.29
2022-09-13T05:04:48.080Z,79.62
2022-09-13T05:09:52.322Z,79.50
2022-09-13T05:14:55.194Z,79.76
2022-09-13T05:19:58.063Z,79.65
2022-09-13T05:25:02.380Z,78.35
2022-09-13T05:30:06.247Z,77.70
2022-09-13T05:35:10.000Z,77.79
2022-09-13T05:40:14.342Z,77.19
2022-09-13T05:45:17.500Z,78.15
2022-09-13T05:50:45.193Z,76.30
2022-09-13T05:55:44.984Z,74.80
2022-09-13T06:00:54.483Z,72.23
2022-09-13T06:05:58.680Z,70.36
2022-09-13T06:11:05.576Z,68.84
2022-09-13T06:16:10.528Z,64.81
2022-09-13T06:21:17.829Z,62.99
2022-09-13T06:26:24.598Z,60.77
2022-09-13T06:31:29.187Z,62.40
2022-09-13T06:36:32.279Z,63.26
2022-09-13T06:41:37.406Z,64.05
2022-09-13T06:46:40.387Z,63.22
2022-09-13T06:51:43.593Z,63.85
2022-09-13T06:56:47.950Z,63.63
2022-09-13T07:01:50.989Z,62.53
2022-09-13T07:06:54.520Z,62.37
2022-09-13T07:11:58.786Z,62.58
2022-09-13T07:17:01.693Z,61.72
2022-09-13T07:22:04.794Z,61.73
2022-09-13T07:27:09.086Z,60.71
2022-09-13T07:32:12.001Z,62.68
2022-09-13T07:37:14.931Z,59.12
2022-09-13T07:42:19.187Z,61.59
2022-09-13T07:47:22.116Z,63.06
2022-09-13T07:52:25.109Z,62.81
2022-09-13T07:57:29.802Z,64.95
2022-09-13T08:02:33.523Z,64.94
2022-09-13T08:07:36.487Z,66.17
2022-09-13T08:12:40.753Z,69.14
2022-09-13T08:17:43.686Z,66.64
2022-09-13T08:22:46.632Z,68.16
2022-09-13T08:27:50.880Z,70.07
2022-09-13T08:32:53.816Z,68.53
2022-09-13T08:37:57.499Z,68.35
2022-09-13T08:43:08.657Z,70.46
2022-09-13T08:48:18.491Z,69.61
2022-09-13T08:53:26.853Z,65.74
2022-09-13T08:59:01.492Z,66.55
2022-09-13T09:04:12.455Z,65.69
2022-09-13T09:09:19.274Z,65.49
2022-09-13T09:14:32.374Z,64.94
2022-09-13T09:19:40.460Z,63.93
2022-09-13T09:24:48.855Z,64.73
2022-09-13T09:29:55.069Z,63.31
2022-09-13T09:35:12.732Z,62.96
2022-09-13T09:40:17.318Z,61.12
2022-09-13T09:45:27.861Z,60.46
2022-09-13T09:50:34.513Z,61.61
2022-09-13T09:55:45.811Z,60.73
2022-09-13T10:00:55.809Z,61.95
2022-09-13T10:06:07.429Z,59.71
2022-09-13T10:11:11.024Z,59.76
2022-09-13T10:16:27.349Z,58.91
2022-09-13T10:21:30.712Z,56.14
2022-09-13T10:26:35.247Z,56.83
2022-09-13T10:31:42.767Z,55.71
2022-09-13T10:36:54.370Z,54.32
2022-09-13T10:42:00.047Z,54.40
2022-09-13T10:47:07.553Z,53.81
2022-09-13T10:52:31.066Z,52.82
2022-09-13T10:57:36.429Z,50.88
2022-09-13T11:02:53.745Z,49.95
2022-09-13T11:08:28.482Z,51.76
2022-09-13T11:13:45.087Z,50.55
2022-09-13T11:19:04.499Z,49.84
2022-09-13T11:24:43.957Z,48.88
2022-09-13T11:30:04.335Z,48.70
2022-09-13T11:35:35.200Z,50.43
2022-09-13T11:40:50.936Z,49.89
2022-09-13T11:46:04.366Z,49.55
2022-09-13T11:51:19.176Z,48.86
2022-09-13T11:56:27.639Z,49.58
2022-09-13T12:01:38.571Z,48.03
2022-09-13T12:06:46.381Z,48.45
2022-09-13T12:11:53.902Z,47.54
2022-09-13T12:17:01.093Z,48.42
2022-09-13T12:22:08.101Z,47.13
2022-09-13T12:27:23.117Z,47.71
2022-09-13T12:32:29.071Z,48.81
2022-09-13T12:37:55.589Z,49.19
2022-09-13T12:43:11.461Z,46.97
2022-09-13T12:48:32.615Z,47.91
2022-09-13T12:54:03.697Z,46.73
2022-09-13T12:59:36.865Z,47.21
2022-09-13T13:04:39.941Z,47.28
2022-09-13T13:09:47.508Z,45.89
2022-09-13T13:14:53.615Z,46.74
2022-09-13T13:19:56.793Z,46.39
2022-09-13T13:25:41.604Z,46.32
2022-09-13T13:30:53.687Z,46.94
2022-09-13T13:35:56.880Z,46.17
2022-09-13T13:41:12.845Z,46.60
2022-09-13T13:46:28.909Z,43.98
2022-09-13T13:51:31.919Z,44.92
2022-09-13T13:56:48.260Z,45.87
2022-09-13T14:01:55.666Z,46.66
2022-09-13T14:07:19.024Z,47.24
2022-09-13T14:12:36.148Z,47.62
2022-09-13T14:18:01.282Z,47.89
2022-09-13T14:23:17.727Z,47.41
2022-09-13T14:28:23.631Z,46.55
2022-09-13T14:33:31.438Z,46.71
2022-09-13T14:38:37.023Z,47.63
2022-09-13T14:43:42.295Z,48.51
2022-09-13T14:48:51.687Z,49.00
2022-09-13T14:54:00.055Z,49.01
2022-09-13T14:59:08.226Z,49.29
2022-09-13T15:04:11.358Z,49.91
2022-09-13T15:09:27.955Z,50.33
2022-09-13T15:14:34.947Z,49.81
2022-09-13T15:19:40.861Z,51.51
2022-09-13T15:24:47.067Z,51.53
2022-09-13T15:29:53.407Z,51.08
2022-09-13T15:34:59.052Z,51.51
2022-09-13T15:40:15.489Z,51.21
2022-09-13T15:45:21.583Z,51.96
2022-09-13T15:50:29.068Z,52.80
2022-09-13T15:55:32.317Z,52.74
2022-09-13T16:00:36.671Z,52.02
2022-09-13T16:05:39.676Z,52.61
2022-09-13T16:10:42.629Z,53.19
2022-09-13T16:15:46.990Z,52.79
2022-09-13T16:20:50.171Z,52.97
2022-09-13T16:25:56.904Z,51.83
2022-09-13T16:31:01.196Z,52.32
2022-09-13T16:36:04.301Z,52.44
2022-09-13T16:41:07.932Z,52.47
2022-09-13T16:46:14.877Z,52.49
2022-09-13T16:51:17.868Z,52.37
2022-09-13T16:56:23.507Z,53.12
2022-09-13T17:01:29.366Z,53.22
2022-09-13T17:06:32.391Z,53.10
2022-09-13T17:11:38.573Z,53.60
2022-09-13T17:16:46.434Z,53.55
2022-09-13T17:21:49.641Z,53.81
2022-09-13T17:26:52.638Z,52.99
2022-09-13T17:31:56.973Z,53.52
2022-09-13T17:36:59.904Z,54.24
2022-09-13T17:42:02.919Z,54.62
2022-09-13T17:47:07.696Z,54.55
2022-09-13T17:52:10.732Z,54.82
2022-09-13T17:57:15.621Z,55.61
2022-09-13T18:02:27.394Z,55.94
2022-09-13T18:07:30.406Z,56.24
2022-09-13T18:12:33.822Z,56.71
2022-09-13T18:17:38.164Z,56.75
2022-09-13T18:22:41.108Z,56.93
2022-09-13T18:27:44.071Z,57.84
2022-09-13T18:32:48.422Z,57.94
2022-09-13T18:37:51.897Z,57.28
2022-09-13T18:42:55.872Z,57.41
2022-09-13T18:48:00.153Z,57.26
2022-09-13T18:53:03.096Z,57.20
2022-09-13T18:58:06.825Z,56.40
2022-09-13T19:03:13.236Z,57.67
2022-09-13T19:08:16.265Z,57.38
2022-09-13T19:13:19.224Z,56.75
2022-09-13T19:18:23.601Z,56.78
2022-09-13T19:23:42.970Z,57.16
2022-09-13T19:28:52.181Z,57.49
2022-09-13T19:33:57.484Z,57.97
2022-09-13T19:39:00.930Z,59.37
2022-09-13T19:44:04.782Z,61.11
2022-09-13T19:49:10.903Z,61.43
2022-09-13T19:54:17.067Z,61.91
2022-09-13T19:59:20.850Z,62.29
2022-09-13T20:04:26.020Z,62.50
2022-09-13T20:09:29.064Z,62.23
2022-09-13T20:14:32.835Z,62.57
2022-09-13T20:19:42.476Z,62.86
2022-09-13T20:24:48.716Z,63.53
2022-09-13T20:29:51.711Z,64.46
2022-09-13T20:34:56.120Z,64.99
2022-09-13T20:40:03.125Z,65.72
2022-09-13T20:45:07.488Z,65.68
2022-09-13T20:50:12.138Z,66.45
2022-09-13T20:55:15.723Z,67.75
2022-09-13T21:00:19.076Z,68.00
2022-09-13T21:05:23.372Z,68.30
2022-09-13T21:10:26.385Z,68.92
2022-09-13T21:15:29.345Z,69.16
2022-09-13T21:20:34.207Z,69.20
2022-09-13T21:25:37.640Z,69.66
2022-09-13T21:30:41.143Z,70.11
2022-09-13T21:35:45.463Z,70.23
2022-09-13T21:40:55.484Z,69.73
2022-09-13T21:46:03.364Z,70.06
2022-09-13T21:51:16.839Z,70.50
2022-09-13T21:56:21.342Z,70.64
2022-09-13T22:01:25.893Z,70.99
2022-09-13T22:06:33.525Z,71.48
2022-09-13T22:11:39.213Z,72.11
2022-09-13T22:16:43.630Z,71.99
2022-09-13T22:21:49.669Z,72.05
2022-09-13T22:26:54.160Z,72.56
2022-09-13T22:31:57.659Z,73.05
2022-09-13T22:37:02.125Z,72.48
2022-09-13T22:42:05.500Z,72.99
2022-09-13T22:47:09.231Z,72.58
2022-09-13T22:52:13.554Z,72.92
2022-09-13T22:57:16.466Z,73.50
2022-09-13T23:02:19.360Z,73.43
2022-09-13T23:07:23.658Z,75.06
2022-09-13T23:12:26.598Z,75.05
2022-09-13T23:17:29.475Z,74.43
2022-09-13T23:22:33.804Z,74.51
2022-09-13T23:27:36.739Z,74.35
2022-09-13T23:32:39.645Z,74.80
2022-09-13T23:37:43.945Z,74.44
2022-09-13T23:42:46.879Z,75.05
2022-09-13T23:47:49.805Z,74.97
2022-09-13T23:52:54.116Z,74.96
2022-09-13T23:57:57.035Z,75.16
